Shingobee, Minnesota
Current Conditions -  °F | °C
As of 12:35 PM on Thursday 23 Oct 2014 (Local Time) from KY49 Reporting Station
Clear Clear  
Wind Chill: 58°   Ceiling: Unl
Heat Index: 58°   Visibility: 10mi
Dew Point: 47°   Wind: 6mph
Humidity: 66%   Direction: 200°SSW
Pressure: 29.93"   Gusts: NA
Location:  47.0507°N, 94.6083°W
Report Text: KY49 231735Z AUTO 20005KT 10SM CLR 15/08 A2993 RMK AO2 T01460082
Loading
Personal Weather Stations






























Interactive Weather Map
Tropical Storm Tracking
New forecast layout! Learn more

10-Day Weather Forecast

Advertisements
Track Severe Weather on mobile